sensor_id;sensor_type;location;lat;lon;timestamp;P1;durP1;ratioP1;P2;durP2;ratioP2
9860;SDS011;4969;52.304;4.968;2023-11-22T00:01:04;5.03;;;4.63;;
9860;SDS011;4969;52.304;4.968;2023-11-22T00:03:32;4.90;;;4.50;;
9860;SDS011;4969;52.304;4.968;2023-11-22T00:05:59;4.47;;;4.17;;
9860;SDS011;4969;52.304;4.968;2023-11-22T00:08:26;5.50;;;4.70;;
9860;SDS011;4969;52.304;4.968;2023-11-22T00:10:54;5.20;;;4.70;;
9860;SDS011;4969;52.304;4.968;2023-11-22T00:13:21;5.77;;;4.87;;
9860;SDS011;4969;52.304;4.968;2023-11-22T00:15:47;4.67;;;4.27;;
9860;SDS011;4969;52.304;4.968;2023-11-22T00:18:14;6.10;;;4.93;;
9860;SDS011;4969;52.304;4.968;2023-11-22T00:20:42;5.27;;;4.77;;
9860;SDS011;4969;52.304;4.968;2023-11-22T00:23:09;5.33;;;4.57;;
9860;SDS011;4969;52.304;4.968;2023-11-22T00:25:35;6.53;;;4.87;;
9860;SDS011;4969;52.304;4.968;2023-11-22T00:28:02;5.23;;;4.70;;
9860;SDS011;4969;52.304;4.968;2023-11-22T00:30:31;5.40;;;4.40;;
9860;SDS011;4969;52.304;4.968;2023-11-22T00:32:57;6.57;;;4.93;;
9860;SDS011;4969;52.304;4.968;2023-11-22T00:35:24;4.90;;;4.57;;
9860;SDS011;4969;52.304;4.968;2023-11-22T00:37:52;4.83;;;4.53;;
9860;SDS011;4969;52.304;4.968;2023-11-22T00:40:18;5.20;;;4.70;;
9860;SDS011;4969;52.304;4.968;2023-11-22T00:42:45;4.80;;;4.50;;
9860;SDS011;4969;52.304;4.968;2023-11-22T00:45:12;5.20;;;4.70;;
9860;SDS011;4969;52.304;4.968;2023-11-22T00:47:38;6.30;;;5.80;;
9860;SDS011;4969;52.304;4.968;2023-11-22T00:50:05;5.10;;;4.70;;
9860;SDS011;4969;52.304;4.968;2023-11-22T00:52:32;5.37;;;4.87;;
9860;SDS011;4969;52.304;4.968;2023-11-22T00:55:01;5.43;;;5.03;;
9860;SDS011;4969;52.304;4.968;2023-11-22T00:57:28;6.20;;;5.60;;
9860;SDS011;4969;52.304;4.968;2023-11-22T00:59:55;7.13;;;5.70;;
9860;SDS011;4969;52.304;4.968;2023-11-22T01:02:22;8.17;;;5.90;;
9860;SDS011;4969;52.304;4.968;2023-11-22T01:04:48;9.23;;;6.43;;
9860;SDS011;4969;52.304;4.968;2023-11-22T01:07:15;6.00;;;5.50;;
9860;SDS011;4969;52.304;4.968;2023-11-22T01:09:41;5.77;;;5.27;;
9860;SDS011;4969;52.304;4.968;2023-11-22T01:12:09;7.57;;;5.83;;
9860;SDS011;4969;52.304;4.968;2023-11-22T01:14:37;6.47;;;5.83;;
9860;SDS011;4969;52.304;4.968;2023-11-22T01:17:04;6.60;;;6.00;;
9860;SDS011;4969;52.304;4.968;2023-11-22T01:19:30;7.50;;;6.80;;
9860;SDS011;4969;52.304;4.968;2023-11-22T01:21:57;7.13;;;6.50;;
9860;SDS011;4969;52.304;4.968;2023-11-22T01:24:23;6.20;;;5.70;;
9860;SDS011;4969;52.304;4.968;2023-11-22T01:26:51;8.60;;;6.57;;
9860;SDS011;4969;52.304;4.968;2023-11-22T01:29:19;6.03;;;5.53;;
9860;SDS011;4969;52.304;4.968;2023-11-22T01:31:46;6.20;;;5.70;;
9860;SDS011;4969;52.304;4.968;2023-11-22T01:34:13;6.73;;;6.23;;
9860;SDS011;4969;52.304;4.968;2023-11-22T01:36:41;7.50;;;6.60;;
9860;SDS011;4969;52.304;4.968;2023-11-22T01:39:10;6.80;;;6.20;;
9860;SDS011;4969;52.304;4.968;2023-11-22T01:41:37;6.47;;;5.90;;
9860;SDS011;4969;52.304;4.968;2023-11-22T01:44:04;6.93;;;6.33;;
9860;SDS011;4969;52.304;4.968;2023-11-22T01:46:32;7.50;;;6.80;;
9860;SDS011;4969;52.304;4.968;2023-11-22T01:48:58;6.17;;;5.60;;
9860;SDS011;4969;52.304;4.968;2023-11-22T01:51:26;6.30;;;5.77;;
9860;SDS011;4969;52.304;4.968;2023-11-22T01:53:54;6.67;;;6.17;;
9860;SDS011;4969;52.304;4.968;2023-11-22T01:56:23;7.77;;;6.97;;
9860;SDS011;4969;52.304;4.968;2023-11-22T01:58:52;7.53;;;6.73;;
9860;SDS011;4969;52.304;4.968;2023-11-22T02:01:19;7.63;;;6.93;;
9860;SDS011;4969;52.304;4.968;2023-11-22T02:03:47;7.37;;;6.77;;
9860;SDS011;4969;52.304;4.968;2023-11-22T02:06:15;7.10;;;6.53;;
9860;SDS011;4969;52.304;4.968;2023-11-22T02:08:42;8.27;;;7.60;;
9860;SDS011;4969;52.304;4.968;2023-11-22T02:11:08;7.00;;;6.20;;
9860;SDS011;4969;52.304;4.968;2023-11-22T02:13:35;7.10;;;6.40;;
9860;SDS011;4969;52.304;4.968;2023-11-22T02:16:02;7.17;;;6.57;;
9860;SDS011;4969;52.304;4.968;2023-11-22T02:18:29;7.23;;;6.60;;
9860;SDS011;4969;52.304;4.968;2023-11-22T02:20:57;7.37;;;6.67;;
9860;SDS011;4969;52.304;4.968;2023-11-22T02:23:25;7.07;;;6.47;;
9860;SDS011;4969;52.304;4.968;2023-11-22T02:25:53;7.53;;;6.83;;
9860;SDS011;4969;52.304;4.968;2023-11-22T02:28:20;7.67;;;6.90;;
9860;SDS011;4969;52.304;4.968;2023-11-22T02:30:47;8.80;;;7.70;;
9860;SDS011;4969;52.304;4.968;2023-11-22T02:33:14;6.83;;;6.33;;
9860;SDS011;4969;52.304;4.968;2023-11-22T02:35:40;7.60;;;7.00;;
9860;SDS011;4969;52.304;4.968;2023-11-22T02:38:07;6.73;;;6.23;;
9860;SDS011;4969;52.304;4.968;2023-11-22T02:40:35;6.87;;;6.37;;
9860;SDS011;4969;52.304;4.968;2023-11-22T02:43:01;7.43;;;6.73;;
9860;SDS011;4969;52.304;4.968;2023-11-22T02:45:32;7.43;;;6.27;;
9860;SDS011;4969;52.304;4.968;2023-11-22T02:47:59;7.23;;;6.47;;
9860;SDS011;4969;52.304;4.968;2023-11-22T02:50:26;8.57;;;7.80;;
9860;SDS011;4969;52.304;4.968;2023-11-22T02:52:53;8.10;;;7.33;;
9860;SDS011;4969;52.304;4.968;2023-11-22T02:55:19;7.93;;;7.23;;
9860;SDS011;4969;52.304;4.968;2023-11-22T02:57:47;9.40;;;8.60;;
9860;SDS011;4969;52.304;4.968;2023-11-22T03:00:14;6.60;;;6.10;;
9860;SDS011;4969;52.304;4.968;2023-11-22T03:02:41;7.30;;;6.70;;
9860;SDS011;4969;52.304;4.968;2023-11-22T03:05:08;7.97;;;7.27;;
9860;SDS011;4969;52.304;4.968;2023-11-22T03:07:34;7.97;;;7.20;;
9860;SDS011;4969;52.304;4.968;2023-11-22T03:10:01;7.47;;;6.53;;
9860;SDS011;4969;52.304;4.968;2023-11-22T03:12:28;7.37;;;6.67;;
9860;SDS011;4969;52.304;4.968;2023-11-22T03:14:55;8.17;;;7.53;;
9860;SDS011;4969;52.304;4.968;2023-11-22T03:17:25;8.90;;;8.07;;
9860;SDS011;4969;52.304;4.968;2023-11-22T03:19:53;7.83;;;7.10;;
9860;SDS011;4969;52.304;4.968;2023-11-22T03:22:21;9.37;;;8.43;;
9860;SDS011;4969;52.304;4.968;2023-11-22T03:24:47;10.93;;;7.50;;
9860;SDS011;4969;52.304;4.968;2023-11-22T03:27:14;9.03;;;8.33;;
9860;SDS011;4969;52.304;4.968;2023-11-22T03:29:40;8.60;;;7.90;;
9860;SDS011;4969;52.304;4.968;2023-11-22T03:32:08;9.60;;;8.60;;
9860;SDS011;4969;52.304;4.968;2023-11-22T03:34:36;9.37;;;8.37;;
9860;SDS011;4969;52.304;4.968;2023-11-22T03:37:03;9.17;;;8.33;;
9860;SDS011;4969;52.304;4.968;2023-11-22T03:39:30;10.30;;;9.40;;
9860;SDS011;4969;52.304;4.968;2023-11-22T03:41:56;10.27;;;9.37;;
9860;SDS011;4969;52.304;4.968;2023-11-22T03:44:23;10.17;;;9.27;;
9860;SDS011;4969;52.304;4.968;2023-11-22T03:46:49;10.27;;;9.30;;
9860;SDS011;4969;52.304;4.968;2023-11-22T03:49:18;9.20;;;8.40;;
9860;SDS011;4969;52.304;4.968;2023-11-22T03:51:45;10.87;;;8.87;;
9860;SDS011;4969;52.304;4.968;2023-11-22T03:54:13;9.37;;;8.57;;
9860;SDS011;4969;52.304;4.968;2023-11-22T03:56:39;10.60;;;9.70;;
9860;SDS011;4969;52.304;4.968;2023-11-22T03:59:06;10.30;;;9.30;;
9860;SDS011;4969;52.304;4.968;2023-11-22T04:01:33;10.27;;;9.27;;
9860;SDS011;4969;52.304;4.968;2023-11-22T04:03:59;9.80;;;9.00;;
9860;SDS011;4969;52.304;4.968;2023-11-22T04:06:27;10.93;;;9.90;;
9860;SDS011;4969;52.304;4.968;2023-11-22T04:08:53;11.57;;;10.30;;
9860;SDS011;4969;52.304;4.968;2023-11-22T04:11:20;10.80;;;9.70;;
9860;SDS011;4969;52.304;4.968;2023-11-22T04:13:47;9.60;;;8.80;;
9860;SDS011;4969;52.304;4.968;2023-11-22T04:16:13;10.60;;;9.50;;
9860;SDS011;4969;52.304;4.968;2023-11-22T04:18:40;10.83;;;9.83;;
9860;SDS011;4969;52.304;4.968;2023-11-22T04:21:08;11.07;;;9.00;;
9860;SDS011;4969;52.304;4.968;2023-11-22T04:23:36;10.00;;;9.17;;
9860;SDS011;4969;52.304;4.968;2023-11-22T04:26:02;9.60;;;8.80;;
9860;SDS011;4969;52.304;4.968;2023-11-22T04:28:32;9.53;;;8.73;;
9860;SDS011;4969;52.304;4.968;2023-11-22T04:30:59;10.13;;;9.13;;
9860;SDS011;4969;52.304;4.968;2023-11-22T04:33:26;10.57;;;9.57;;
9860;SDS011;4969;52.304;4.968;2023-11-22T04:35:53;12.00;;;9.67;;
9860;SDS011;4969;52.304;4.968;2023-11-22T04:38:20;10.70;;;9.70;;
9860;SDS011;4969;52.304;4.968;2023-11-22T04:40:48;10.37;;;9.27;;
9860;SDS011;4969;52.304;4.968;2023-11-22T04:43:14;10.53;;;9.37;;
9860;SDS011;4969;52.304;4.968;2023-11-22T04:45:41;10.33;;;9.33;;
9860;SDS011;4969;52.304;4.968;2023-11-22T04:48:08;9.87;;;9.03;;
9860;SDS011;4969;52.304;4.968;2023-11-22T04:50:34;10.07;;;9.07;;
9860;SDS011;4969;52.304;4.968;2023-11-22T04:53:01;10.10;;;9.23;;
9860;SDS011;4969;52.304;4.968;2023-11-22T04:55:28;9.87;;;8.97;;
9860;SDS011;4969;52.304;4.968;2023-11-22T04:57:56;10.40;;;9.53;;
9860;SDS011;4969;52.304;4.968;2023-11-22T05:00:22;11.10;;;10.20;;
9860;SDS011;4969;52.304;4.968;2023-11-22T05:02:49;10.17;;;9.17;;
9860;SDS011;4969;52.304;4.968;2023-11-22T05:05:15;11.13;;;10.13;;
9860;SDS011;4969;52.304;4.968;2023-11-22T05:07:42;9.73;;;8.93;;
9860;SDS011;4969;52.304;4.968;2023-11-22T05:10:09;10.93;;;9.83;;
9860;SDS011;4969;52.304;4.968;2023-11-22T05:12:36;10.47;;;9.47;;
9860;SDS011;4969;52.304;4.968;2023-11-22T05:15:05;11.37;;;10.37;;
9860;SDS011;4969;52.304;4.968;2023-11-22T05:17:32;10.73;;;9.77;;
9860;SDS011;4969;52.304;4.968;2023-11-22T05:19:59;10.27;;;9.27;;
9860;SDS011;4969;52.304;4.968;2023-11-22T05:22:25;10.40;;;9.50;;
9860;SDS011;4969;52.304;4.968;2023-11-22T05:24:52;10.53;;;9.63;;
9860;SDS011;4969;52.304;4.968;2023-11-22T05:27:18;10.73;;;9.73;;
9860;SDS011;4969;52.304;4.968;2023-11-22T05:29:45;9.90;;;9.00;;
9860;SDS011;4969;52.304;4.968;2023-11-22T05:32:13;11.17;;;10.07;;
9860;SDS011;4969;52.304;4.968;2023-11-22T05:34:39;9.67;;;8.83;;
9860;SDS011;4969;52.304;4.968;2023-11-22T05:37:06;10.57;;;9.57;;
9860;SDS011;4969;52.304;4.968;2023-11-22T05:39:33;11.53;;;10.43;;
9860;SDS011;4969;52.304;4.968;2023-11-22T05:42:01;9.53;;;8.73;;
9860;SDS011;4969;52.304;4.968;2023-11-22T05:44:28;9.60;;;8.70;;
9860;SDS011;4969;52.304;4.968;2023-11-22T05:46:54;11.23;;;10.07;;
9860;SDS011;4969;52.304;4.968;2023-11-22T05:49:23;11.13;;;9.80;;
9860;SDS011;4969;52.304;4.968;2023-11-22T05:51:49;10.73;;;9.77;;
9860;SDS011;4969;52.304;4.968;2023-11-22T05:54:16;11.80;;;10.60;;
9860;SDS011;4969;52.304;4.968;2023-11-22T05:56:42;11.27;;;10.17;;
9860;SDS011;4969;52.304;4.968;2023-11-22T05:59:09;10.90;;;9.90;;
9860;SDS011;4969;52.304;4.968;2023-11-22T06:01:36;10.57;;;9.57;;
9860;SDS011;4969;52.304;4.968;2023-11-22T06:04:02;11.10;;;9.87;;
9860;SDS011;4969;52.304;4.968;2023-11-22T06:06:30;11.30;;;10.30;;
9860;SDS011;4969;52.304;4.968;2023-11-22T06:08:57;11.80;;;10.70;;
9860;SDS011;4969;52.304;4.968;2023-11-22T06:11:23;11.43;;;10.30;;
9860;SDS011;4969;52.304;4.968;2023-11-22T06:13:51;11.40;;;10.30;;
9860;SDS011;4969;52.304;4.968;2023-11-22T06:16:17;11.27;;;10.17;;
9860;SDS011;4969;52.304;4.968;2023-11-22T06:18:44;11.73;;;10.63;;
9860;SDS011;4969;52.304;4.968;2023-11-22T06:21:12;11.57;;;10.47;;
9860;SDS011;4969;52.304;4.968;2023-11-22T06:23:40;12.33;;;11.13;;
9860;SDS011;4969;52.304;4.968;2023-11-22T06:26:07;12.03;;;10.83;;
9860;SDS011;4969;52.304;4.968;2023-11-22T06:28:34;12.83;;;11.53;;
9860;SDS011;4969;52.304;4.968;2023-11-22T06:31:01;12.50;;;11.20;;
9860;SDS011;4969;52.304;4.968;2023-11-22T06:33:28;12.20;;;11.03;;
9860;SDS011;4969;52.304;4.968;2023-11-22T06:35:55;12.07;;;10.87;;
9860;SDS011;4969;52.304;4.968;2023-11-22T06:38:22;11.37;;;10.27;;
9860;SDS011;4969;52.304;4.968;2023-11-22T06:40:49;10.57;;;9.57;;
9860;SDS011;4969;52.304;4.968;2023-11-22T06:43:15;10.30;;;9.30;;
9860;SDS011;4969;52.304;4.968;2023-11-22T06:45:42;10.33;;;9.33;;
9860;SDS011;4969;52.304;4.968;2023-11-22T06:48:08;11.27;;;10.10;;
9860;SDS011;4969;52.304;4.968;2023-11-22T06:50:35;11.73;;;10.57;;
9860;SDS011;4969;52.304;4.968;2023-11-22T06:53:01;12.57;;;11.30;;
9860;SDS011;4969;52.304;4.968;2023-11-22T06:55:28;11.93;;;10.60;;
9860;SDS011;4969;52.304;4.968;2023-11-22T06:57:57;11.77;;;10.63;;
9860;SDS011;4969;52.304;4.968;2023-11-22T07:00:24;13.03;;;10.53;;
9860;SDS011;4969;52.304;4.968;2023-11-22T07:02:52;11.57;;;10.47;;
9860;SDS011;4969;52.304;4.968;2023-11-22T07:05:19;12.40;;;10.67;;
9860;SDS011;4969;52.304;4.968;2023-11-22T07:07:45;11.90;;;10.67;;
9860;SDS011;4969;52.304;4.968;2023-11-22T07:10:13;13.23;;;11.83;;
9860;SDS011;4969;52.304;4.968;2023-11-22T07:12:40;12.60;;;11.40;;
9860;SDS011;4969;52.304;4.968;2023-11-22T07:15:10;12.07;;;10.87;;
9860;SDS011;4969;52.304;4.968;2023-11-22T07:17:36;12.83;;;11.50;;
9860;SDS011;4969;52.304;4.968;2023-11-22T07:20:04;10.83;;;9.83;;
9860;SDS011;4969;52.304;4.968;2023-11-22T07:22:34;13.27;;;11.87;;
9860;SDS011;4969;52.304;4.968;2023-11-22T07:25:01;12.90;;;11.60;;
9860;SDS011;4969;52.304;4.968;2023-11-22T07:27:28;12.53;;;11.23;;
9860;SDS011;4969;52.304;4.968;2023-11-22T07:29:55;12.20;;;10.90;;
9860;SDS011;4969;52.304;4.968;2023-11-22T07:32:23;12.70;;;11.50;;
9860;SDS011;4969;52.304;4.968;2023-11-22T07:34:50;13.03;;;11.73;;
9860;SDS011;4969;52.304;4.968;2023-11-22T07:37:20;12.30;;;11.07;;
9860;SDS011;4969;52.304;4.968;2023-11-22T07:39:48;12.00;;;10.80;;
9860;SDS011;4969;52.304;4.968;2023-11-22T07:42:16;12.90;;;11.60;;
9860;SDS011;4969;52.304;4.968;2023-11-22T07:44:43;10.40;;;9.43;;
9860;SDS011;4969;52.304;4.968;2023-11-22T07:47:09;12.07;;;10.87;;
9860;SDS011;4969;52.304;4.968;2023-11-22T07:49:39;12.53;;;11.30;;
9860;SDS011;4969;52.304;4.968;2023-11-22T07:52:07;12.73;;;11.43;;
9860;SDS011;4969;52.304;4.968;2023-11-22T07:54:36;12.97;;;11.67;;
9860;SDS011;4969;52.304;4.968;2023-11-22T07:57:04;12.57;;;11.30;;
9860;SDS011;4969;52.304;4.968;2023-11-22T07:59:30;11.50;;;10.40;;
9860;SDS011;4969;52.304;4.968;2023-11-22T08:01:57;12.43;;;11.27;;
9860;SDS011;4969;52.304;4.968;2023-11-22T08:04:26;12.53;;;11.33;;
9860;SDS011;4969;52.304;4.968;2023-11-22T08:06:54;12.73;;;11.53;;
9860;SDS011;4969;52.304;4.968;2023-11-22T08:09:21;12.43;;;10.97;;
9860;SDS011;4969;52.304;4.968;2023-11-22T08:11:48;14.40;;;11.27;;
9860;SDS011;4969;52.304;4.968;2023-11-22T08:14:15;11.57;;;10.37;;
9860;SDS011;4969;52.304;4.968;2023-11-22T08:16:42;11.73;;;10.60;;
9860;SDS011;4969;52.304;4.968;2023-11-22T08:19:10;12.87;;;11.57;;
9860;SDS011;4969;52.304;4.968;2023-11-22T08:21:37;13.87;;;12.47;;
9860;SDS011;4969;52.304;4.968;2023-11-22T08:24:05;13.47;;;12.07;;
9860;SDS011;4969;52.304;4.968;2023-11-22T08:26:32;13.83;;;12.50;;
9860;SDS011;4969;52.304;4.968;2023-11-22T08:28:59;15.20;;;13.33;;
9860;SDS011;4969;52.304;4.968;2023-11-22T08:31:25;14.83;;;13.33;;
9860;SDS011;4969;52.304;4.968;2023-11-22T08:33:52;15.93;;;13.30;;
9860;SDS011;4969;52.304;4.968;2023-11-22T08:36:18;15.57;;;13.50;;
9860;SDS011;4969;52.304;4.968;2023-11-22T08:38:45;12.70;;;11.43;;
9860;SDS011;4969;52.304;4.968;2023-11-22T08:41:13;14.57;;;13.07;;
9860;SDS011;4969;52.304;4.968;2023-11-22T08:43:39;14.13;;;12.63;;
9860;SDS011;4969;52.304;4.968;2023-11-22T08:46:06;15.60;;;13.37;;
9860;SDS011;4969;52.304;4.968;2023-11-22T08:48:33;14.80;;;12.87;;
9860;SDS011;4969;52.304;4.968;2023-11-22T08:51:00;13.40;;;12.13;;
9860;SDS011;4969;52.304;4.968;2023-11-22T08:53:29;14.37;;;12.97;;
9860;SDS011;4969;52.304;4.968;2023-11-22T08:55:55;13.77;;;11.80;;
9860;SDS011;4969;52.304;4.968;2023-11-22T08:58:23;13.37;;;12.07;;
9860;SDS011;4969;52.304;4.968;2023-11-22T09:00:50;12.67;;;11.43;;
9860;SDS011;4969;52.304;4.968;2023-11-22T09:03:17;13.83;;;12.43;;
9860;SDS011;4969;52.304;4.968;2023-11-22T09:05:44;13.90;;;12.50;;
9860;SDS011;4969;52.304;4.968;2023-11-22T09:08:11;14.20;;;12.80;;
9860;SDS011;4969;52.304;4.968;2023-11-22T09:10:40;14.57;;;13.07;;
9860;SDS011;4969;52.304;4.968;2023-11-22T09:13:07;13.17;;;11.87;;
9860;SDS011;4969;52.304;4.968;2023-11-22T09:15:35;14.77;;;13.27;;
9860;SDS011;4969;52.304;4.968;2023-11-22T09:18:03;14.53;;;13.17;;
9860;SDS011;4969;52.304;4.968;2023-11-22T09:20:31;15.00;;;13.40;;
9860;SDS011;4969;52.304;4.968;2023-11-22T09:22:58;14.40;;;12.90;;
9860;SDS011;4969;52.304;4.968;2023-11-22T09:25:24;13.63;;;12.03;;
9860;SDS011;4969;52.304;4.968;2023-11-22T09:27:54;14.53;;;13.13;;
9860;SDS011;4969;52.304;4.968;2023-11-22T09:30:25;14.67;;;13.17;;
9860;SDS011;4969;52.304;4.968;2023-11-22T09:33:01;15.00;;;13.50;;
9860;SDS011;4969;52.304;4.968;2023-11-22T09:35:29;14.67;;;13.13;;
9860;SDS011;4969;52.304;4.968;2023-11-22T09:37:57;14.90;;;13.40;;
9860;SDS011;4969;52.304;4.968;2023-11-22T09:40:24;15.13;;;13.63;;
9860;SDS011;4969;52.304;4.968;2023-11-22T09:42:52;12.90;;;11.60;;
9860;SDS011;4969;52.304;4.968;2023-11-22T09:45:20;16.37;;;13.70;;
9860;SDS011;4969;52.304;4.968;2023-11-22T09:47:47;12.37;;;11.17;;
9860;SDS011;4969;52.304;4.968;2023-11-22T09:50:17;13.63;;;12.33;;
9860;SDS011;4969;52.304;4.968;2023-11-22T09:52:46;14.03;;;12.73;;
9860;SDS011;4969;52.304;4.968;2023-11-22T09:55:17;14.30;;;13.00;;
9860;SDS011;4969;52.304;4.968;2023-11-22T09:57:45;13.43;;;12.07;;
9860;SDS011;4969;52.304;4.968;2023-11-22T10:00:12;14.53;;;13.13;;
9860;SDS011;4969;52.304;4.968;2023-11-22T10:02:41;13.73;;;12.43;;
9860;SDS011;4969;52.304;4.968;2023-11-22T10:05:08;13.27;;;11.93;;
9860;SDS011;4969;52.304;4.968;2023-11-22T10:07:37;13.37;;;12.07;;
9860;SDS011;4969;52.304;4.968;2023-11-22T10:10:04;12.37;;;11.23;;
9860;SDS011;4969;52.304;4.968;2023-11-22T10:12:33;14.20;;;12.80;;
9860;SDS011;4969;52.304;4.968;2023-11-22T10:15:11;12.63;;;10.97;;
9860;SDS011;4969;52.304;4.968;2023-11-22T10:17:39;13.33;;;11.90;;
9860;SDS011;4969;52.304;4.968;2023-11-22T10:20:06;12.40;;;11.17;;
9860;SDS011;4969;52.304;4.968;2023-11-22T10:22:46;14.23;;;12.83;;
9860;SDS011;4969;52.304;4.968;2023-11-22T10:25:13;12.50;;;11.50;;
9860;SDS011;4969;52.304;4.968;2023-11-22T10:27:43;12.93;;;11.83;;
9860;SDS011;4969;52.304;4.968;2023-11-22T10:30:11;12.77;;;11.47;;
9860;SDS011;4969;52.304;4.968;2023-11-22T10:32:38;12.17;;;11.03;;
9860;SDS011;4969;52.304;4.968;2023-11-22T10:35:06;12.57;;;11.23;;
9860;SDS011;4969;52.304;4.968;2023-11-22T10:37:33;13.10;;;11.87;;
9860;SDS011;4969;52.304;4.968;2023-11-22T10:40:03;13.90;;;12.60;;
9860;SDS011;4969;52.304;4.968;2023-11-22T10:42:33;13.07;;;11.97;;
9860;SDS011;4969;52.304;4.968;2023-11-22T10:45:00;13.17;;;12.07;;
9860;SDS011;4969;52.304;4.968;2023-11-22T10:47:28;13.30;;;12.10;;
9860;SDS011;4969;52.304;4.968;2023-11-22T10:49:56;12.97;;;11.70;;
9860;SDS011;4969;52.304;4.968;2023-11-22T10:52:26;11.93;;;10.73;;
9860;SDS011;4969;52.304;4.968;2023-11-22T10:54:55;11.30;;;10.30;;
9860;SDS011;4969;52.304;4.968;2023-11-22T10:57:29;12.30;;;11.20;;
9860;SDS011;4969;52.304;4.968;2023-11-22T10:59:57;12.67;;;11.57;;
9860;SDS011;4969;52.304;4.968;2023-11-22T11:02:31;12.57;;;11.37;;
9860;SDS011;4969;52.304;4.968;2023-11-22T11:05:02;13.13;;;12.03;;
9860;SDS011;4969;52.304;4.968;2023-11-22T11:07:38;13.57;;;12.47;;
9860;SDS011;4969;52.304;4.968;2023-11-22T11:10:07;11.90;;;10.90;;
9860;SDS011;4969;52.304;4.968;2023-11-22T11:12:37;13.53;;;12.23;;
9860;SDS011;4969;52.304;4.968;2023-11-22T11:15:04;11.67;;;10.57;;
9860;SDS011;4969;52.304;4.968;2023-11-22T11:17:33;12.73;;;11.53;;
9860;SDS011;4969;52.304;4.968;2023-11-22T11:19:59;12.80;;;11.50;;
9860;SDS011;4969;52.304;4.968;2023-11-22T11:22:27;12.13;;;10.93;;
9860;SDS011;4969;52.304;4.968;2023-11-22T11:25:00;12.50;;;11.30;;
9860;SDS011;4969;52.304;4.968;2023-11-22T11:27:28;12.37;;;11.07;;
9860;SDS011;4969;52.304;4.968;2023-11-22T11:29:56;12.50;;;11.40;;
9860;SDS011;4969;52.304;4.968;2023-11-22T11:32:30;11.73;;;10.67;;
9860;SDS011;4969;52.304;4.968;2023-11-22T11:34:57;13.10;;;11.57;;
9860;SDS011;4969;52.304;4.968;2023-11-22T11:37:25;12.33;;;11.30;;
9860;SDS011;4969;52.304;4.968;2023-11-22T11:39:55;12.23;;;11.18;;
9860;SDS011;4969;52.304;4.968;2023-11-22T11:42:21;11.40;;;10.10;;
9860;SDS011;4969;52.304;4.968;2023-11-22T11:44:51;12.35;;;11.32;;
9860;SDS011;4969;52.304;4.968;2023-11-22T11:47:31;13.15;;;11.75;;
9860;SDS011;4969;52.304;4.968;2023-11-22T11:49:58;11.02;;;10.20;;
9860;SDS011;4969;52.304;4.968;2023-11-22T11:52:26;12.35;;;11.18;;
9860;SDS011;4969;52.304;4.968;2023-11-22T11:54:53;13.77;;;12.65;;
9860;SDS011;4969;52.304;4.968;2023-11-22T11:57:19;11.50;;;10.40;;
9860;SDS011;4969;52.304;4.968;2023-11-22T11:59:47;11.93;;;10.93;;
9860;SDS011;4969;52.304;4.968;2023-11-22T12:02:16;13.05;;;11.95;;
9860;SDS011;4969;52.304;4.968;2023-11-22T12:04:44;12.40;;;11.40;;
9860;SDS011;4969;52.304;4.968;2023-11-22T12:07:11;13.68;;;12.38;;
9860;SDS011;4969;52.304;4.968;2023-11-22T12:09:38;12.25;;;11.15;;
9860;SDS011;4969;52.304;4.968;2023-11-22T12:12:04;13.18;;;12.18;;
9860;SDS011;4969;52.304;4.968;2023-11-22T12:14:31;14.27;;;12.93;;
9860;SDS011;4969;52.304;4.968;2023-11-22T12:16:59;13.90;;;12.70;;
9860;SDS011;4969;52.304;4.968;2023-11-22T12:19:27;14.15;;;12.75;;
9860;SDS011;4969;52.304;4.968;2023-11-22T12:21:56;12.47;;;11.27;;
9860;SDS011;4969;52.304;4.968;2023-11-22T12:24:23;12.43;;;11.32;;
9860;SDS011;4969;52.304;4.968;2023-11-22T12:26:50;12.70;;;11.60;;
9860;SDS011;4969;52.304;4.968;2023-11-22T12:29:17;12.38;;;11.27;;
9860;SDS011;4969;52.304;4.968;2023-11-22T12:31:44;10.65;;;9.80;;
9860;SDS011;4969;52.304;4.968;2023-11-22T12:34:12;11.77;;;10.60;;
9860;SDS011;4969;52.304;4.968;2023-11-22T12:36:42;11.80;;;10.80;;
9860;SDS011;4969;52.304;4.968;2023-11-22T12:39:09;12.70;;;11.57;;
9860;SDS011;4969;52.304;4.968;2023-11-22T12:41:41;13.18;;;12.07;;
9860;SDS011;4969;52.304;4.968;2023-11-22T12:44:08;7.47;;;6.78;;
9860;SDS011;4969;52.304;4.968;2023-11-22T12:46:44;12.05;;;11.05;;
9860;SDS011;4969;52.304;4.968;2023-11-22T12:49:22;12.55;;;11.45;;
9860;SDS011;4969;52.304;4.968;2023-11-22T12:51:50;12.80;;;11.63;;
9860;SDS011;4969;52.304;4.968;2023-11-22T12:54:18;13.18;;;12.05;;
9860;SDS011;4969;52.304;4.968;2023-11-22T12:56:46;11.30;;;10.40;;
9860;SDS011;4969;52.304;4.968;2023-11-22T12:59:15;13.90;;;12.60;;
9860;SDS011;4969;52.304;4.968;2023-11-22T13:01:42;12.40;;;11.33;;
9860;SDS011;4969;52.304;4.968;2023-11-22T13:04:09;11.68;;;10.68;;
9860;SDS011;4969;52.304;4.968;2023-11-22T13:06:36;12.23;;;11.15;;
9860;SDS011;4969;52.304;4.968;2023-11-22T13:09:05;11.82;;;10.82;;
9860;SDS011;4969;52.304;4.968;2023-11-22T13:11:32;13.17;;;11.97;;
9860;SDS011;4969;52.304;4.968;2023-11-22T13:13:59;11.00;;;10.10;;
9860;SDS011;4969;52.304;4.968;2023-11-22T13:16:25;13.63;;;12.43;;
9860;SDS011;4969;52.304;4.968;2023-11-22T13:18:52;12.52;;;11.52;;
9860;SDS011;4969;52.304;4.968;2023-11-22T13:21:18;11.75;;;10.70;;
9860;SDS011;4969;52.304;4.968;2023-11-22T13:23:45;12.57;;;11.48;;
9860;SDS011;4969;52.304;4.968;2023-11-22T13:26:13;12.65;;;11.60;;
9860;SDS011;4969;52.304;4.968;2023-11-22T13:28:39;11.45;;;10.50;;
9860;SDS011;4969;52.304;4.968;2023-11-22T13:31:07;12.95;;;11.85;;
9860;SDS011;4969;52.304;4.968;2023-11-22T13:33:34;13.32;;;12.13;;
9860;SDS011;4969;52.304;4.968;2023-11-22T13:36:01;12.00;;;10.85;;
9860;SDS011;4969;52.304;4.968;2023-11-22T13:38:28;11.82;;;10.82;;
9860;SDS011;4969;52.304;4.968;2023-11-22T13:40:55;11.05;;;10.15;;
9860;SDS011;4969;52.304;4.968;2023-11-22T13:43:23;11.93;;;10.93;;
9860;SDS011;4969;52.304;4.968;2023-11-22T13:45:50;12.40;;;11.30;;
9860;SDS011;4969;52.304;4.968;2023-11-22T13:48:17;11.73;;;10.73;;
9860;SDS011;4969;52.304;4.968;2023-11-22T13:50:43;12.80;;;11.55;;
9860;SDS011;4969;52.304;4.968;2023-11-22T13:53:10;13.55;;;10.40;;
9860;SDS011;4969;52.304;4.968;2023-11-22T13:55:37;11.82;;;10.88;;
9860;SDS011;4969;52.304;4.968;2023-11-22T13:58:03;11.68;;;10.68;;
9860;SDS011;4969;52.304;4.968;2023-11-22T14:00:33;12.05;;;9.80;;
9860;SDS011;4969;52.304;4.968;2023-11-22T14:03:00;11.25;;;10.27;;
9860;SDS011;4969;52.304;4.968;2023-11-22T14:05:31;11.82;;;10.82;;
9860;SDS011;4969;52.304;4.968;2023-11-22T14:07:59;11.85;;;10.77;;
9860;SDS011;4969;52.304;4.968;2023-11-22T14:10:26;11.70;;;10.80;;
9860;SDS011;4969;52.304;4.968;2023-11-22T14:12:53;11.35;;;10.43;;
9860;SDS011;4969;52.304;4.968;2023-11-22T14:15:25;10.85;;;9.95;;
9860;SDS011;4969;52.304;4.968;2023-11-22T14:17:54;12.43;;;11.23;;
9860;SDS011;4969;52.304;4.968;2023-11-22T14:20:20;11.43;;;10.50;;
9860;SDS011;4969;52.304;4.968;2023-11-22T14:22:47;12.05;;;10.85;;
9860;SDS011;4969;52.304;4.968;2023-11-22T14:25:14;10.65;;;9.73;;
9860;SDS011;4969;52.304;4.968;2023-11-22T14:27:41;9.35;;;8.50;;
9860;SDS011;4969;52.304;4.968;2023-11-22T14:30:09;11.55;;;10.55;;
9860;SDS011;4969;52.304;4.968;2023-11-22T14:32:39;11.32;;;10.40;;
9860;SDS011;4969;52.304;4.968;2023-11-22T14:35:07;11.57;;;10.48;;
9860;SDS011;4969;52.304;4.968;2023-11-22T14:37:34;11.73;;;10.67;;
9860;SDS011;4969;52.304;4.968;2023-11-22T14:40:01;13.30;;;12.20;;
9860;SDS011;4969;52.304;4.968;2023-11-22T14:42:29;12.98;;;10.75;;
9860;SDS011;4969;52.304;4.968;2023-11-22T14:44:56;12.10;;;10.93;;
9860;SDS011;4969;52.304;4.968;2023-11-22T14:47:23;12.07;;;10.88;;
9860;SDS011;4969;52.304;4.968;2023-11-22T14:49:51;12.20;;;11.20;;
9860;SDS011;4969;52.304;4.968;2023-11-22T14:52:19;11.67;;;10.53;;
9860;SDS011;4969;52.304;4.968;2023-11-22T14:54:47;13.17;;;11.97;;
9860;SDS011;4969;52.304;4.968;2023-11-22T14:57:15;12.70;;;11.53;;
9860;SDS011;4969;52.304;4.968;2023-11-22T14:59:42;10.63;;;8.23;;